SBDN/PPB METAR and TAF weather

Enter ICAO airport designator
Station Type Date Time Source
SBDN METAR 2019/08/19 11:00 UTC NOAA

SBDN 191100Z 00000KT CAVOK 23/12 Q1016


Station Type Date Time Source
SBDN Decoded METAR 2019/08/19 11:00 UTC NOAA

Station name not available
Aug 19, 2019 - 07:00 AM EDT / 2019.08.19 1100 UTC
Wind: Calm:0
Visibility: greater than 7 mile(s):0
Temperature: 73 F (23 C)
Dew Point: 53 F (12 C)
Relative Humidity: 49%
Pressure (altimeter): 30.00 in. Hg (1016 hPa)
ob: SBDN 191100Z 00000KT CAVOK 23/12 Q1016
cycle: 11

Station Type Date Time Source
SBDN TAF 2019/08/19 06:33 UTC NOAA

TAF SBDN 190300Z 1906/1918 06007KT CAVOK TN21/1909Z TX31/1918Z
RMK PDJ

Example: see airport list